sensor_id;sensor_type;location;lat;lon;timestamp;pressure;altitude;pressure_sealevel;temperature;humidity
37078;BME280;22989;55.998;37.212;2023-04-20T00:00:34;-11298.94;;;-145.39;33.71
37078;BME280;22989;55.998;37.212;2023-04-20T00:03:00;-11298.94;;;-145.39;33.62
37078;BME280;22989;55.998;37.212;2023-04-20T00:05:26;-11298.94;;;-145.39;33.62
37078;BME280;22989;55.998;37.212;2023-04-20T00:07:51;-11298.94;;;-145.39;33.71
37078;BME280;22989;55.998;37.212;2023-04-20T00:10:18;-11298.94;;;-145.39;33.74
37078;BME280;22989;55.998;37.212;2023-04-20T00:12:44;-11298.94;;;-145.39;33.87
37078;BME280;22989;55.998;37.212;2023-04-20T00:15:09;-11298.94;;;-145.39;34.02
37078;BME280;22989;55.998;37.212;2023-04-20T00:17:38;-11298.94;;;-145.39;34.11
37078;BME280;22989;55.998;37.212;2023-04-20T00:20:04;-11298.94;;;-145.39;34.16
37078;BME280;22989;55.998;37.212;2023-04-20T00:22:30;-11298.94;;;-145.39;34.33
37078;BME280;22989;55.998;37.212;2023-04-20T00:24:55;-11298.94;;;-145.39;34.26
37078;BME280;22989;55.998;37.212;2023-04-20T00:27:21;-11298.94;;;-145.39;34.37
37078;BME280;22989;55.998;37.212;2023-04-20T00:29:46;-11298.94;;;-145.39;34.32
37078;BME280;22989;55.998;37.212;2023-04-20T00:32:12;-11298.94;;;-145.39;34.32
37078;BME280;22989;55.998;37.212;2023-04-20T00:34:39;-11298.94;;;-145.39;34.42
37078;BME280;22989;55.998;37.212;2023-04-20T00:37:04;-11298.94;;;-145.39;34.48
37078;BME280;22989;55.998;37.212;2023-04-20T00:39:30;-11298.94;;;-145.39;34.38
37078;BME280;22989;55.998;37.212;2023-04-20T00:42:02;-11298.94;;;-145.39;34.42
37078;BME280;22989;55.998;37.212;2023-04-20T00:44:28;-11298.94;;;-145.39;34.37
37078;BME280;22989;55.998;37.212;2023-04-20T00:46:53;-11298.94;;;-145.39;34.49
37078;BME280;22989;55.998;37.212;2023-04-20T00:49:22;-11298.94;;;-145.39;34.59
37078;BME280;22989;55.998;37.212;2023-04-20T00:51:47;-11298.94;;;-145.39;34.67
37078;BME280;22989;55.998;37.212;2023-04-20T00:54:13;-11298.94;;;-145.39;34.77
37078;BME280;22989;55.998;37.212;2023-04-20T00:56:41;-11298.94;;;-145.39;34.79
37078;BME280;22989;55.998;37.212;2023-04-20T00:59:06;-11298.94;;;-145.39;35.06
37078;BME280;22989;55.998;37.212;2023-04-20T01:01:32;-11298.94;;;-145.39;35.21
37078;BME280;22989;55.998;37.212;2023-04-20T01:03:57;-11298.94;;;-145.39;35.26
37078;BME280;22989;55.998;37.212;2023-04-20T01:06:23;-11298.94;;;-145.39;35.53
37078;BME280;22989;55.998;37.212;2023-04-20T01:08:52;-11298.94;;;-145.39;35.59
37078;BME280;22989;55.998;37.212;2023-04-20T01:11:17;-11298.94;;;-145.39;35.83
37078;BME280;22989;55.998;37.212;2023-04-20T01:13:43;-11298.94;;;-145.39;35.90
37078;BME280;22989;55.998;37.212;2023-04-20T01:16:08;-11298.94;;;-145.39;35.84
37078;BME280;22989;55.998;37.212;2023-04-20T01:18:44;-11298.94;;;-145.39;35.80
37078;BME280;22989;55.998;37.212;2023-04-20T01:21:11;-11298.94;;;-145.39;35.86
37078;BME280;22989;55.998;37.212;2023-04-20T01:23:37;-11298.94;;;-145.39;35.92
37078;BME280;22989;55.998;37.212;2023-04-20T01:26:10;-11298.94;;;-145.39;35.88
37078;BME280;22989;55.998;37.212;2023-04-20T01:28:36;-11298.94;;;-145.39;35.93
37078;BME280;22989;55.998;37.212;2023-04-20T01:31:02;-11298.94;;;-145.39;36.05
37078;BME280;22989;55.998;37.212;2023-04-20T01:33:30;-11298.94;;;-145.39;36.18
37078;BME280;22989;55.998;37.212;2023-04-20T01:35:55;-11298.94;;;-145.39;36.18
37078;BME280;22989;55.998;37.212;2023-04-20T01:38:21;-11298.94;;;-145.39;36.36
37078;BME280;22989;55.998;37.212;2023-04-20T01:40:47;-11298.94;;;-145.39;36.42
37078;BME280;22989;55.998;37.212;2023-04-20T01:43:13;-11298.94;;;-145.39;36.42
37078;BME280;22989;55.998;37.212;2023-04-20T01:45:39;-11298.94;;;-145.39;36.48
37078;BME280;22989;55.998;37.212;2023-04-20T01:48:04;-11298.94;;;-145.39;36.65
37078;BME280;22989;55.998;37.212;2023-04-20T01:50:31;-11298.94;;;-145.39;36.71
37078;BME280;22989;55.998;37.212;2023-04-20T01:52:56;-11298.94;;;-145.39;36.83
37078;BME280;22989;55.998;37.212;2023-04-20T01:55:22;-11298.94;;;-145.39;36.80
37078;BME280;22989;55.998;37.212;2023-04-20T01:57:47;-11298.94;;;-145.39;36.99
37078;BME280;22989;55.998;37.212;2023-04-20T02:00:13;-11298.94;;;-145.39;36.90
37078;BME280;22989;55.998;37.212;2023-04-20T02:02:42;-11298.94;;;-145.39;36.96
37078;BME280;22989;55.998;37.212;2023-04-20T02:05:08;-11298.94;;;-145.39;37.00
37078;BME280;22989;55.998;37.212;2023-04-20T02:07:33;-11298.94;;;-145.39;37.03
37078;BME280;22989;55.998;37.212;2023-04-20T02:09:59;-11298.94;;;-145.39;37.05
37078;BME280;22989;55.998;37.212;2023-04-20T02:12:24;-11298.94;;;-145.39;37.05
37078;BME280;22989;55.998;37.212;2023-04-20T02:14:49;-11298.94;;;-145.39;37.23
37078;BME280;22989;55.998;37.212;2023-04-20T02:17:15;-11298.94;;;-145.39;37.11
37078;BME280;22989;55.998;37.212;2023-04-20T02:19:42;-11298.94;;;-145.39;37.06
37078;BME280;22989;55.998;37.212;2023-04-20T02:22:08;-11298.94;;;-145.39;37.13
37078;BME280;22989;55.998;37.212;2023-04-20T02:24:33;-11298.94;;;-145.39;36.98
37078;BME280;22989;55.998;37.212;2023-04-20T02:26:59;-11298.94;;;-145.39;37.15
37078;BME280;22989;55.998;37.212;2023-04-20T02:29:25;-11298.94;;;-145.39;37.10
37078;BME280;22989;55.998;37.212;2023-04-20T02:31:51;-11298.94;;;-145.39;37.13
37078;BME280;22989;55.998;37.212;2023-04-20T02:34:16;-11298.94;;;-145.39;37.13
37078;BME280;22989;55.998;37.212;2023-04-20T02:36:42;-11298.94;;;-145.39;37.16
37078;BME280;22989;55.998;37.212;2023-04-20T02:39:11;-11298.94;;;-145.39;37.20
37078;BME280;22989;55.998;37.212;2023-04-20T02:41:36;-11298.94;;;-145.39;37.27
37078;BME280;22989;55.998;37.212;2023-04-20T02:44:02;-11298.94;;;-145.39;37.14
37078;BME280;22989;55.998;37.212;2023-04-20T02:46:27;-11298.94;;;-145.39;37.16
37078;BME280;22989;55.998;37.212;2023-04-20T02:48:53;-11298.94;;;-145.39;37.13
37078;BME280;22989;55.998;37.212;2023-04-20T02:51:20;-11298.94;;;-145.39;37.05
37078;BME280;22989;55.998;37.212;2023-04-20T02:53:46;-11298.94;;;-145.39;36.85
37078;BME280;22989;55.998;37.212;2023-04-20T02:56:25;-11298.94;;;-145.39;36.61
37078;BME280;22989;55.998;37.212;2023-04-20T02:58:53;-11298.94;;;-145.39;36.66
37078;BME280;22989;55.998;37.212;2023-04-20T03:01:37;-11298.94;;;-145.39;36.15
37078;BME280;22989;55.998;37.212;2023-04-20T03:04:09;-11298.94;;;-145.39;35.99
37078;BME280;22989;55.998;37.212;2023-04-20T03:06:41;-11298.94;;;-145.39;34.78
37078;BME280;22989;55.998;37.212;2023-04-20T03:09:10;-11298.94;;;-145.39;33.36
37078;BME280;22989;55.998;37.212;2023-04-20T03:11:59;-11298.94;;;-145.39;31.91
37078;BME280;22989;55.998;37.212;2023-04-20T03:14:55;-11298.94;;;-145.39;30.37
37078;BME280;22989;55.998;37.212;2023-04-20T03:17:28;-11298.94;;;-145.39;29.61
37078;BME280;22989;55.998;37.212;2023-04-20T03:19:54;-11298.94;;;-145.39;28.75
37078;BME280;22989;55.998;37.212;2023-04-20T03:22:20;-11298.94;;;-145.39;28.50
37078;BME280;22989;55.998;37.212;2023-04-20T03:24:49;-11298.94;;;-145.39;27.51
37078;BME280;22989;55.998;37.212;2023-04-20T03:27:36;-11298.94;;;-145.39;26.68
37078;BME280;22989;55.998;37.212;2023-04-20T03:30:08;-11298.94;;;-145.39;26.17
37078;BME280;22989;55.998;37.212;2023-04-20T03:32:34;-11298.94;;;-145.39;25.39
37078;BME280;22989;55.998;37.212;2023-04-20T03:35:00;-11298.94;;;-145.39;25.14
37078;BME280;22989;55.998;37.212;2023-04-20T03:37:26;-11298.94;;;-145.39;24.57
37078;BME280;22989;55.998;37.212;2023-04-20T03:39:52;-11298.94;;;-145.39;24.46
37078;BME280;22989;55.998;37.212;2023-04-20T03:42:17;-11298.94;;;-145.39;24.02
37078;BME280;22989;55.998;37.212;2023-04-20T03:44:43;-11298.94;;;-145.39;23.49
37078;BME280;22989;55.998;37.212;2023-04-20T03:47:09;-11298.94;;;-145.39;23.91
37078;BME280;22989;55.998;37.212;2023-04-20T03:49:35;-11298.94;;;-145.39;23.47
37078;BME280;22989;55.998;37.212;2023-04-20T03:52:01;-11298.94;;;-145.39;22.96
37078;BME280;22989;55.998;37.212;2023-04-20T03:54:26;-11298.94;;;-145.39;22.89
37078;BME280;22989;55.998;37.212;2023-04-20T03:56:52;-11298.94;;;-145.39;22.88
37078;BME280;22989;55.998;37.212;2023-04-20T03:59:18;-11298.94;;;-145.39;22.98
37078;BME280;22989;55.998;37.212;2023-04-20T04:01:46;-11298.94;;;-145.39;22.84
37078;BME280;22989;55.998;37.212;2023-04-20T04:04:12;-11298.94;;;-145.39;22.99
37078;BME280;22989;55.998;37.212;2023-04-20T04:06:37;-11298.94;;;-145.39;23.81
37078;BME280;22989;55.998;37.212;2023-04-20T04:09:03;-11298.94;;;-145.39;24.41
37078;BME280;22989;55.998;37.212;2023-04-20T04:11:28;-11298.94;;;-145.39;24.14
37078;BME280;22989;55.998;37.212;2023-04-20T04:13:58;-11298.94;;;-145.39;24.45
37078;BME280;22989;55.998;37.212;2023-04-20T04:16:24;-11298.94;;;-145.39;24.32
37078;BME280;22989;55.998;37.212;2023-04-20T04:18:50;-11298.94;;;-145.39;24.57
37078;BME280;22989;55.998;37.212;2023-04-20T04:21:15;-11298.94;;;-145.39;23.97
37078;BME280;22989;55.998;37.212;2023-04-20T04:23:47;-11298.94;;;-145.39;24.24
37078;BME280;22989;55.998;37.212;2023-04-20T04:26:18;-11298.94;;;-145.39;24.17
37078;BME280;22989;55.998;37.212;2023-04-20T04:28:50;-11298.94;;;-145.39;24.01
37078;BME280;22989;55.998;37.212;2023-04-20T04:31:17;-11298.94;;;-145.39;24.45
37078;BME280;22989;55.998;37.212;2023-04-20T04:33:46;-11298.94;;;-145.39;25.05
37078;BME280;22989;55.998;37.212;2023-04-20T04:36:21;-11298.94;;;-145.39;25.81
37078;BME280;22989;55.998;37.212;2023-04-20T04:38:49;-11298.94;;;-145.39;25.80
37078;BME280;22989;55.998;37.212;2023-04-20T04:41:15;-11298.94;;;-145.39;25.40
37078;BME280;22989;55.998;37.212;2023-04-20T04:43:43;-11298.94;;;-145.39;25.75
37078;BME280;22989;55.998;37.212;2023-04-20T04:46:24;-11298.94;;;-145.39;26.74
37078;BME280;22989;55.998;37.212;2023-04-20T04:48:49;-11298.94;;;-145.39;26.90
37078;BME280;22989;55.998;37.212;2023-04-20T04:51:17;-11298.94;;;-145.39;25.94
37078;BME280;22989;55.998;37.212;2023-04-20T04:53:42;-11298.94;;;-145.39;24.89
37078;BME280;22989;55.998;37.212;2023-04-20T04:56:10;-11298.94;;;-145.39;24.21
37078;BME280;22989;55.998;37.212;2023-04-20T04:58:37;-11298.94;;;-145.39;22.80
37078;BME280;22989;55.998;37.212;2023-04-20T05:01:03;-11298.94;;;-145.39;22.48
37078;BME280;22989;55.998;37.212;2023-04-20T05:03:28;-11298.94;;;-145.39;23.60
37078;BME280;22989;55.998;37.212;2023-04-20T05:05:54;-11298.94;;;-145.39;24.02
37078;BME280;22989;55.998;37.212;2023-04-20T05:08:20;-11298.94;;;-145.39;22.98
37078;BME280;22989;55.998;37.212;2023-04-20T05:10:46;-11298.94;;;-145.39;22.36
37078;BME280;22989;55.998;37.212;2023-04-20T05:13:12;-11298.94;;;-145.39;21.74
37078;BME280;22989;55.998;37.212;2023-04-20T05:15:37;-11298.94;;;-145.39;22.18
37078;BME280;22989;55.998;37.212;2023-04-20T05:18:02;-11298.94;;;-145.39;20.99
37078;BME280;22989;55.998;37.212;2023-04-20T05:20:28;-11298.94;;;-145.39;21.04
37078;BME280;22989;55.998;37.212;2023-04-20T05:22:53;-11298.94;;;-145.39;20.79
37078;BME280;22989;55.998;37.212;2023-04-20T05:25:19;-11298.94;;;-145.39;20.03
37078;BME280;22989;55.998;37.212;2023-04-20T05:27:44;-11298.94;;;-145.39;20.04
37078;BME280;22989;55.998;37.212;2023-04-20T05:30:10;-11298.94;;;-145.39;19.78
37078;BME280;22989;55.998;37.212;2023-04-20T05:32:36;-11298.94;;;-145.39;19.82
37078;BME280;22989;55.998;37.212;2023-04-20T05:35:01;-11298.94;;;-145.39;19.72
37078;BME280;22989;55.998;37.212;2023-04-20T05:37:27;-11298.94;;;-145.39;19.50
37078;BME280;22989;55.998;37.212;2023-04-20T05:39:53;-11298.94;;;-145.39;19.88
37078;BME280;22989;55.998;37.212;2023-04-20T05:42:18;-11298.94;;;-145.39;19.57
37078;BME280;22989;55.998;37.212;2023-04-20T05:44:44;-11298.94;;;-145.39;19.54
37078;BME280;22989;55.998;37.212;2023-04-20T05:47:09;-11298.94;;;-145.39;20.07
37078;BME280;22989;55.998;37.212;2023-04-20T05:49:35;-11298.94;;;-145.39;20.51
37078;BME280;22989;55.998;37.212;2023-04-20T05:52:00;-11298.94;;;-145.39;20.91
37078;BME280;22989;55.998;37.212;2023-04-20T05:54:26;-11298.94;;;-145.39;20.59
37078;BME280;22989;55.998;37.212;2023-04-20T05:56:53;-11298.94;;;-145.39;20.26
37078;BME280;22989;55.998;37.212;2023-04-20T05:59:18;-11298.94;;;-145.39;20.17
37078;BME280;22989;55.998;37.212;2023-04-20T06:01:44;-11298.94;;;-145.39;20.67
37078;BME280;22989;55.998;37.212;2023-04-20T06:04:09;-11298.94;;;-145.39;20.92
37078;BME280;22989;55.998;37.212;2023-04-20T06:06:34;-11298.94;;;-145.39;21.09
37078;BME280;22989;55.998;37.212;2023-04-20T06:09:00;-11298.94;;;-145.39;20.29
37078;BME280;22989;55.998;37.212;2023-04-20T06:11:25;-11298.94;;;-145.39;20.57
37078;BME280;22989;55.998;37.212;2023-04-20T06:13:51;-11298.94;;;-145.39;20.22
37078;BME280;22989;55.998;37.212;2023-04-20T06:16:16;-11298.94;;;-145.39;20.08
37078;BME280;22989;55.998;37.212;2023-04-20T06:18:42;-11298.94;;;-145.39;19.91
37078;BME280;22989;55.998;37.212;2023-04-20T06:21:08;-11298.94;;;-145.39;20.44
37078;BME280;22989;55.998;37.212;2023-04-20T06:23:34;-11298.94;;;-145.39;21.06
37078;BME280;22989;55.998;37.212;2023-04-20T06:26:00;-11298.94;;;-145.39;21.05
37078;BME280;22989;55.998;37.212;2023-04-20T06:28:25;-11298.94;;;-145.39;21.40
37078;BME280;22989;55.998;37.212;2023-04-20T06:30:51;-11298.94;;;-145.39;21.07
37078;BME280;22989;55.998;37.212;2023-04-20T06:33:16;-11298.94;;;-145.39;21.47
37078;BME280;22989;55.998;37.212;2023-04-20T06:35:42;-11298.94;;;-145.39;21.31
37078;BME280;22989;55.998;37.212;2023-04-20T06:38:07;-11298.94;;;-145.39;21.26
37078;BME280;22989;55.998;37.212;2023-04-20T06:40:33;-11298.94;;;-145.39;21.07
37078;BME280;22989;55.998;37.212;2023-04-20T06:42:58;-11298.94;;;-145.39;20.79
37078;BME280;22989;55.998;37.212;2023-04-20T06:45:24;-11298.94;;;-145.39;20.56
37078;BME280;22989;55.998;37.212;2023-04-20T06:47:49;-11298.94;;;-145.39;20.65
37078;BME280;22989;55.998;37.212;2023-04-20T06:50:15;-11298.94;;;-145.39;20.70
37078;BME280;22989;55.998;37.212;2023-04-20T06:52:40;-11298.94;;;-145.39;20.71
37078;BME280;22989;55.998;37.212;2023-04-20T06:55:06;-11298.94;;;-145.39;20.38
37078;BME280;22989;55.998;37.212;2023-04-20T06:57:32;-11298.94;;;-145.39;20.23
37078;BME280;22989;55.998;37.212;2023-04-20T06:59:57;-11298.94;;;-145.39;20.33
37078;BME280;22989;55.998;37.212;2023-04-20T07:02:23;-11298.94;;;-145.39;20.40
37078;BME280;22989;55.998;37.212;2023-04-20T07:04:49;-11298.94;;;-145.39;20.50
37078;BME280;22989;55.998;37.212;2023-04-20T07:07:14;-11298.94;;;-145.39;20.31
37078;BME280;22989;55.998;37.212;2023-04-20T07:09:40;-11298.94;;;-145.39;20.41
37078;BME280;22989;55.998;37.212;2023-04-20T07:12:05;-11298.94;;;-145.39;20.63
37078;BME280;22989;55.998;37.212;2023-04-20T07:14:30;-11298.94;;;-145.39;20.45
37078;BME280;22989;55.998;37.212;2023-04-20T07:16:56;-11298.94;;;-145.39;20.56
37078;BME280;22989;55.998;37.212;2023-04-20T07:19:21;-11298.94;;;-145.39;20.64
37078;BME280;22989;55.998;37.212;2023-04-20T07:21:47;-11298.94;;;-145.39;20.84
37078;BME280;22989;55.998;37.212;2023-04-20T07:24:13;-11298.94;;;-145.39;20.64
37078;BME280;22989;55.998;37.212;2023-04-20T07:26:38;-11298.94;;;-145.39;20.72
37078;BME280;22989;55.998;37.212;2023-04-20T07:29:03;-11298.94;;;-145.39;20.52
37078;BME280;22989;55.998;37.212;2023-04-20T07:31:29;-11298.94;;;-145.39;19.92
37078;BME280;22989;55.998;37.212;2023-04-20T07:33:54;-11298.94;;;-145.39;20.54
37078;BME280;22989;55.998;37.212;2023-04-20T07:36:20;-11298.94;;;-145.39;20.54
37078;BME280;22989;55.998;37.212;2023-04-20T07:38:47;-11298.94;;;-145.39;21.13
37078;BME280;22989;55.998;37.212;2023-04-20T07:41:12;-11298.94;;;-145.39;20.76
37078;BME280;22989;55.998;37.212;2023-04-20T07:43:38;-11298.94;;;-145.39;21.09
37078;BME280;22989;55.998;37.212;2023-04-20T07:46:03;-11298.94;;;-145.39;21.22
37078;BME280;22989;55.998;37.212;2023-04-20T07:48:29;-11298.94;;;-145.39;21.16
37078;BME280;22989;55.998;37.212;2023-04-20T07:50:54;-11298.94;;;-145.39;21.29
37078;BME280;22989;55.998;37.212;2023-04-20T07:53:20;-11298.94;;;-145.39;21.48
37078;BME280;22989;55.998;37.212;2023-04-20T07:55:45;-11298.94;;;-145.39;21.79
37078;BME280;22989;55.998;37.212;2023-04-20T07:58:10;-11298.94;;;-145.39;21.94
37078;BME280;22989;55.998;37.212;2023-04-20T08:00:36;-11298.94;;;-145.39;22.20
37078;BME280;22989;55.998;37.212;2023-04-20T08:03:02;-11298.94;;;-145.39;22.35
37078;BME280;22989;55.998;37.212;2023-04-20T08:05:27;-11298.94;;;-145.39;22.97
37078;BME280;22989;55.998;37.212;2023-04-20T08:07:53;-11298.94;;;-145.39;23.33
37078;BME280;22989;55.998;37.212;2023-04-20T08:10:18;-11298.94;;;-145.39;23.63
37078;BME280;22989;55.998;37.212;2023-04-20T08:12:44;-11298.94;;;-145.39;23.66
37078;BME280;22989;55.998;37.212;2023-04-20T08:15:11;-11298.94;;;-145.39;23.87
37078;BME280;22989;55.998;37.212;2023-04-20T08:17:36;-11298.94;;;-145.39;24.20
37078;BME280;22989;55.998;37.212;2023-04-20T08:20:02;-11298.94;;;-145.39;24.30
37078;BME280;22989;55.998;37.212;2023-04-20T08:22:30;-11298.94;;;-145.39;24.39
37078;BME280;22989;55.998;37.212;2023-04-20T08:24:56;-11298.94;;;-145.39;24.21
37078;BME280;22989;55.998;37.212;2023-04-20T08:27:21;-11298.94;;;-145.39;24.06
37078;BME280;22989;55.998;37.212;2023-04-20T08:29:47;-11298.94;;;-145.39;23.86
37078;BME280;22989;55.998;37.212;2023-04-20T08:32:12;-11298.94;;;-145.39;23.82
37078;BME280;22989;55.998;37.212;2023-04-20T08:34:38;-11298.94;;;-145.39;23.53
37078;BME280;22989;55.998;37.212;2023-04-20T08:37:03;-11298.94;;;-145.39;23.38
37078;BME280;22989;55.998;37.212;2023-04-20T08:39:29;-11298.94;;;-145.39;23.52
37078;BME280;22989;55.998;37.212;2023-04-20T08:41:55;-11298.94;;;-145.39;24.11
37078;BME280;22989;55.998;37.212;2023-04-20T08:44:21;-11298.94;;;-145.39;24.57
37078;BME280;22989;55.998;37.212;2023-04-20T08:46:47;-11298.94;;;-145.39;24.84
37078;BME280;22989;55.998;37.212;2023-04-20T08:49:17;-11298.94;;;-145.39;25.12
37078;BME280;22989;55.998;37.212;2023-04-20T08:51:43;-11298.94;;;-145.39;25.15
37078;BME280;22989;55.998;37.212;2023-04-20T08:54:10;-11298.94;;;-145.39;25.45
37078;BME280;22989;55.998;37.212;2023-04-20T08:56:36;-11298.94;;;-145.39;25.17
37078;BME280;22989;55.998;37.212;2023-04-20T08:59:02;-11298.94;;;-145.39;24.87
37078;BME280;22989;55.998;37.212;2023-04-20T09:01:30;-11298.94;;;-145.39;24.71
37078;BME280;22989;55.998;37.212;2023-04-20T09:03:58;-11298.94;;;-145.39;24.55
37078;BME280;22989;55.998;37.212;2023-04-20T09:06:23;-11298.94;;;-145.39;24.42
37078;BME280;22989;55.998;37.212;2023-04-20T09:08:48;-11298.94;;;-145.39;24.41
37078;BME280;22989;55.998;37.212;2023-04-20T09:11:24;-11298.94;;;-145.39;24.47
37078;BME280;22989;55.998;37.212;2023-04-20T09:14:03;-11298.94;;;-145.39;24.35
37078;BME280;22989;55.998;37.212;2023-04-20T09:16:31;-11298.94;;;-145.39;24.39
37078;BME280;22989;55.998;37.212;2023-04-20T09:18:56;-11298.94;;;-145.39;24.18
37078;BME280;22989;55.998;37.212;2023-04-20T09:21:22;-11298.94;;;-145.39;24.01
37078;BME280;22989;55.998;37.212;2023-04-20T09:24:04;-11298.94;;;-145.39;24.00
37078;BME280;22989;55.998;37.212;2023-04-20T09:26:34;-11298.94;;;-145.39;24.22
37078;BME280;22989;55.998;37.212;2023-04-20T09:29:02;-11298.94;;;-145.39;24.22
37078;BME280;22989;55.998;37.212;2023-04-20T09:31:28;-11298.94;;;-145.39;24.24
37078;BME280;22989;55.998;37.212;2023-04-20T09:36:22;-11298.94;;;-145.39;24.80
37078;BME280;22989;55.998;37.212;2023-04-20T09:38:47;-11298.94;;;-145.39;24.69
37078;BME280;22989;55.998;37.212;2023-04-20T09:41:13;-11298.94;;;-145.39;24.71
37078;BME280;22989;55.998;37.212;2023-04-20T09:43:40;-11298.94;;;-145.39;25.02
37078;BME280;22989;55.998;37.212;2023-04-20T09:46:06;-11298.94;;;-145.39;25.47
37078;BME280;22989;55.998;37.212;2023-04-20T09:48:33;-11298.94;;;-145.39;25.94
37078;BME280;22989;55.998;37.212;2023-04-20T09:50:59;-11298.94;;;-145.39;26.13
37078;BME280;22989;55.998;37.212;2023-04-20T09:53:25;-11298.94;;;-145.39;25.91
37078;BME280;22989;55.998;37.212;2023-04-20T09:55:52;-11298.94;;;-145.39;25.86
37078;BME280;22989;55.998;37.212;2023-04-20T09:58:18;-11298.94;;;-145.39;25.57
37078;BME280;22989;55.998;37.212;2023-04-20T10:00:44;-11298.94;;;-145.39;25.44
37078;BME280;22989;55.998;37.212;2023-04-20T10:03:10;-11298.94;;;-145.39;25.38
37078;BME280;22989;55.998;37.212;2023-04-20T10:05:36;-11298.94;;;-145.39;25.20
37078;BME280;22989;55.998;37.212;2023-04-20T10:08:04;-11298.94;;;-145.39;25.08
37078;BME280;22989;55.998;37.212;2023-04-20T10:10:29;-11298.94;;;-145.39;25.09
37078;BME280;22989;55.998;37.212;2023-04-20T10:12:56;-11298.94;;;-145.39;24.99
37078;BME280;22989;55.998;37.212;2023-04-20T10:15:22;-11298.94;;;-145.39;24.83
37078;BME280;22989;55.998;37.212;2023-04-20T10:17:48;-11298.94;;;-145.39;24.82
37078;BME280;22989;55.998;37.212;2023-04-20T10:20:32;-11298.94;;;-145.39;24.69
37078;BME280;22989;55.998;37.212;2023-04-20T10:23:07;-11298.94;;;-145.39;24.53
37078;BME280;22989;55.998;37.212;2023-04-20T10:25:33;-11298.94;;;-145.39;24.48
37078;BME280;22989;55.998;37.212;2023-04-20T10:28:00;-11298.94;;;-145.39;24.67
37078;BME280;22989;55.998;37.212;2023-04-20T10:30:29;-11298.94;;;-145.39;24.91
37078;BME280;22989;55.998;37.212;2023-04-20T10:33:07;-11298.94;;;-145.39;25.11
37078;BME280;22989;55.998;37.212;2023-04-20T10:35:40;-11298.94;;;-145.39;25.11
37078;BME280;22989;55.998;37.212;2023-04-20T10:38:06;-11298.94;;;-145.39;25.21
37078;BME280;22989;55.998;37.212;2023-04-20T10:40:32;-11298.94;;;-145.39;25.00
37078;BME280;22989;55.998;37.212;2023-04-20T10:42:57;-11298.94;;;-145.39;24.97
37078;BME280;22989;55.998;37.212;2023-04-20T10:45:35;-11298.94;;;-145.39;24.87
37078;BME280;22989;55.998;37.212;2023-04-20T10:48:08;-11298.94;;;-145.39;24.59
37078;BME280;22989;55.998;37.212;2023-04-20T10:50:34;-11298.94;;;-145.39;24.64
37078;BME280;22989;55.998;37.212;2023-04-20T10:53:00;-11298.94;;;-145.39;24.52
37078;BME280;22989;55.998;37.212;2023-04-20T10:55:25;-11298.94;;;-145.39;24.32
37078;BME280;22989;55.998;37.212;2023-04-20T10:57:51;-11298.94;;;-145.39;24.51
37078;BME280;22989;55.998;37.212;2023-04-20T11:00:17;-11298.94;;;-145.39;24.52
37078;BME280;22989;55.998;37.212;2023-04-20T11:02:49;-11298.94;;;-145.39;24.55
37078;BME280;22989;55.998;37.212;2023-04-20T11:05:15;-11298.94;;;-145.39;24.38
37078;BME280;22989;55.998;37.212;2023-04-20T11:10:16;-11298.94;;;-145.39;24.69
37078;BME280;22989;55.998;37.212;2023-04-20T11:12:42;-11298.94;;;-145.39;24.83
37078;BME280;22989;55.998;37.212;2023-04-20T11:15:07;-11298.94;;;-145.39;25.00
37078;BME280;22989;55.998;37.212;2023-04-20T11:17:35;-11298.94;;;-145.39;24.82
37078;BME280;22989;55.998;37.212;2023-04-20T11:20:10;-11298.94;;;-145.39;24.74
37078;BME280;22989;55.998;37.212;2023-04-20T11:22:37;-11298.94;;;-145.39;24.75
37078;BME280;22989;55.998;37.212;2023-04-20T11:25:04;-11298.94;;;-145.39;24.80
37078;BME280;22989;55.998;37.212;2023-04-20T11:27:29;-11298.94;;;-145.39;25.02
37078;BME280;22989;55.998;37.212;2023-04-20T11:29:56;-11298.94;;;-145.39;24.74
37078;BME280;22989;55.998;37.212;2023-04-20T11:32:25;-11298.94;;;-145.39;24.79
37078;BME280;22989;55.998;37.212;2023-04-20T11:34:57;-11298.94;;;-145.39;24.80
37078;BME280;22989;55.998;37.212;2023-04-20T11:37:23;-11298.94;;;-145.39;24.46
37078;BME280;22989;55.998;37.212;2023-04-20T11:39:57;-11298.94;;;-145.39;24.48
37078;BME280;22989;55.998;37.212;2023-04-20T11:42:23;-11298.94;;;-145.39;24.05
37078;BME280;22989;55.998;37.212;2023-04-20T11:44:48;-11298.94;;;-145.39;23.92
37078;BME280;22989;55.998;37.212;2023-04-20T11:47:14;-11298.94;;;-145.39;23.86
37078;BME280;22989;55.998;37.212;2023-04-20T11:49:39;-11298.94;;;-145.39;23.96
37078;BME280;22989;55.998;37.212;2023-04-20T11:52:05;-11298.94;;;-145.39;23.64
37078;BME280;22989;55.998;37.212;2023-04-20T11:54:30;-11298.94;;;-145.39;23.69
37078;BME280;22989;55.998;37.212;2023-04-20T11:56:59;-11298.94;;;-145.39;23.61
37078;BME280;22989;55.998;37.212;2023-04-20T11:59:25;-11298.94;;;-145.39;23.26
37078;BME280;22989;55.998;37.212;2023-04-20T12:01:50;-11298.94;;;-145.39;23.15
37078;BME280;22989;55.998;37.212;2023-04-20T12:04:16;-11298.94;;;-145.39;22.84
37078;BME280;22989;55.998;37.212;2023-04-20T12:06:42;-11298.94;;;-145.39;23.02
37078;BME280;22989;55.998;37.212;2023-04-20T12:09:07;-11298.94;;;-145.39;22.88
37078;BME280;22989;55.998;37.212;2023-04-20T12:11:33;-11298.94;;;-145.39;22.66
37078;BME280;22989;55.998;37.212;2023-04-20T12:13:58;-11298.94;;;-145.39;22.63
37078;BME280;22989;55.998;37.212;2023-04-20T12:16:24;-11298.94;;;-145.39;22.66
37078;BME280;22989;55.998;37.212;2023-04-20T12:18:50;-11298.94;;;-145.39;22.80
37078;BME280;22989;55.998;37.212;2023-04-20T12:21:15;-11298.94;;;-145.39;23.09
37078;BME280;22989;55.998;37.212;2023-04-20T12:23:41;-11298.94;;;-145.39;23.45